CST,Max TemperatureF,Mean TemperatureF,Min TemperatureF,Max Dew PointF,MeanDew PointF,Min DewpointF,Max Humidity, Mean Humidity, Min Humidity, Max Sea Level PressureIn, Mean Sea Level PressureIn, Min Sea Level PressureIn, Max VisibilityMiles, Mean VisibilityMiles, Min VisibilityMiles, Max Wind SpeedMPH, Mean Wind SpeedMPH, Max Gust SpeedMPH,PrecipitationIn, CloudCover, Events, WindDirDegrees
2011-11-1,71,54,36,47,38,28,76,59,41,29.98,29.91,29.85,10,10,9,20,9,23,0.00,1,,184
2011-11-2,49,44,38,39,37,34,100,80,60,30.20,30.10,29.95,10,8,2,29,15,37,0.67,8,Rain,2
2011-11-3,51,38,25,33,30,24,92,67,42,30.30,30.23,30.13,10,10,10,23,11,29,0.00,1,,1
2011-11-4,53,37,20,35,29,19,100,75,50,30.33,30.24,30.11,10,9,7,17,7,22,0.00,0,,142
2011-11-5,53,44,35,45,39,31,100,86,71,30.10,29.94,29.78,10,8,4,23,13,29,0.00,2,,143
2011-11-6,57,43,29,46,38,29,92,68,43,30.10,29.86,29.69,10,10,7,31,13,39,0.00,1,,215
2011-11-7,60,42,24,41,31,23,92,63,33,30.25,30.18,30.12,10,8,5,14,4,20,0.26,2,Rain,58
2011-11-8,44,39,34,41,38,33,96,89,82,30.11,30.06,30.00,10,7,2,23,12,29,1.42,8,Rain-Snow,27
2011-11-9,50,42,33,36,30,22,100,71,42,30.15,30.05,29.99,10,7,2,28,16,36,0.62,4,Rain-Snow-Thunderstorm,327
2011-11-10,40,32,24,26,22,20,84,69,54,30.19,30.14,30.06,10,10,10,22,9,29,0.00,0,,276
2011-11-11,52,39,26,36,30,21,92,73,53,30.04,29.79,29.71,10,10,10,15,6,18,0.00,0,,193
2011-11-12,57,43,28,39,34,28,92,71,50,29.70,29.54,29.35,10,10,8,17,7,22,0.00,0,,175
2011-11-13,55,45,35,41,36,32,89,67,45,29.61,29.41,29.23,10,10,10,26,10,33,0.00,1,,234
2011-11-14,60,45,30,38,31,26,85,57,28,29.70,29.61,29.53,10,10,7,23,8,38,T,2,,232
2011-11-15,57,43,29,34,25,16,85,56,27,30.03,29.80,29.60,10,10,10,22,10,26,0.00,0,,300
2011-11-16,43,31,18,17,12,3,77,48,19,30.27,30.19,30.04,10,10,10,21,10,26,0.00,0,,300
2011-11-17,45,30,14,23,16,10,80,54,27,30.29,30.17,29.96,10,10,10,17,8,22,0.00,0,,226
2011-11-18,56,44,32,33,28,24,82,62,41,29.94,29.78,29.68,10,10,10,32,14,39,0.00,0,,188
2011-11-19,55,41,26,43,33,21,89,75,60,30.14,29.74,29.56,10,10,9,28,11,36,0.00,7,,170
2011-11-20,35,28,21,23,20,18,92,76,59,30.37,30.29,30.12,10,10,10,18,7,23,0.00,5,,350
2011-11-21,42,31,19,34,29,18,92,81,70,30.31,30.23,30.15,10,8,6,9,3,12,0.00,6,,63
2011-11-22,45,39,32,38,36,32,100,88,76,30.16,30.07,30.00,8,4,1,10,5,13,0.00,7,,29
2011-11-23,51,41,31,39,36,30,100,83,66,30.21,30.16,30.14,7,4,0,14,7,20,0.00,4,Fog,182
2011-11-24,66,49,32,43,39,33,100,72,44,30.11,29.98,29.83,10,6,0,23,12,29,0.00,1,Fog,166
2011-11-25,54,50,45,48,44,41,89,74,59,29.83,29.76,29.70,10,8,5,26,14,32,0.01,6,,187
2011-11-26,53,45,37,52,40,29,100,87,73,30.10,29.86,29.70,10,8,4,33,18,43,0.10,8,Rain,290
2011-11-27,37,34,31,27,25,24,78,71,64,30.24,30.18,30.10,10,10,10,29,15,39,0.00,8,,342
2011-11-28,39,32,25,27,25,23,92,78,64,30.22,30.15,30.10,10,10,7,20,5,24,0.00,4,,238
2011-11-29,42,28,14,27,18,9,85,56,27,30.29,30.23,30.15,10,10,10,21,13,30,0.00,0,,346
2011-11-30,50,32,13,17,12,8,84,53,21,30.18,30.05,29.96,10,10,10,21,7,29,0.00,0,,184